createdAt,value
2023-05-19T00:02:27.251Z,22.27
2023-05-19T00:05:31.234Z,21.20
2023-05-19T00:08:35.161Z,17.53
2023-05-19T00:11:40.830Z,28.97
2023-05-19T00:14:44.180Z,18.17
2023-05-19T00:17:47.800Z,22.77
2023-05-19T00:20:52.516Z,24.52
2023-05-19T00:23:56.448Z,16.83
2023-05-19T00:26:59.814Z,16.90
2023-05-19T00:30:03.157Z,18.60
2023-05-19T00:33:06.486Z,22.55
2023-05-19T00:36:10.359Z,20.02
2023-05-19T00:39:13.657Z,27.37
2023-05-19T00:42:17.941Z,19.60
2023-05-19T00:45:21.149Z,27.13
2023-05-19T00:48:26.136Z,25.83
2023-05-19T00:51:29.939Z,18.27
2023-05-19T00:54:36.582Z,18.73
2023-05-19T00:57:39.991Z,21.00
2023-05-19T01:00:44.496Z,22.23
2023-05-19T01:03:49.143Z,26.85
2023-05-19T01:06:55.931Z,24.60
2023-05-19T01:10:00.171Z,24.50
2023-05-19T01:13:05.756Z,21.40
2023-05-19T01:16:21.529Z,20.80
2023-05-19T01:19:37.139Z,25.65
2023-05-19T01:23:01.995Z,19.95
2023-05-19T01:26:30.386Z,23.20
2023-05-19T01:29:45.770Z,20.03
2023-05-19T01:32:51.653Z,25.08
2023-05-19T01:35:56.663Z,21.70
2023-05-19T01:39:02.374Z,21.80
2023-05-19T01:42:06.871Z,28.47
2023-05-19T01:45:11.634Z,29.57
2023-05-19T01:48:15.545Z,25.58
2023-05-19T01:51:19.189Z,26.73
2023-05-19T01:54:22.770Z,24.95
2023-05-19T01:57:50.949Z,29.57
2023-05-19T02:01:15.876Z,38.13
2023-05-19T02:04:32.570Z,27.55
2023-05-19T02:07:45.259Z,28.33
2023-05-19T02:10:55.553Z,26.15
2023-05-19T02:14:03.092Z,23.17
2023-05-19T02:17:06.755Z,25.85
2023-05-19T02:20:10.477Z,25.67
2023-05-19T02:23:13.839Z,27.10
2023-05-19T02:26:17.025Z,29.65
2023-05-19T02:29:21.476Z,33.90
2023-05-19T02:32:26.539Z,27.87
2023-05-19T02:35:29.927Z,30.50
2023-05-19T02:38:33.041Z,36.92
2023-05-19T02:41:36.928Z,26.87
2023-05-19T02:44:40.352Z,32.77
2023-05-19T02:47:43.747Z,24.23
2023-05-19T02:50:47.065Z,25.90
2023-05-19T02:53:51.042Z,28.62
2023-05-19T02:56:54.227Z,25.77
2023-05-19T02:59:57.895Z,27.07
2023-05-19T03:03:03.025Z,19.93
2023-05-19T03:06:08.843Z,26.87
2023-05-19T03:09:11.977Z,21.87
2023-05-19T03:12:15.453Z,19.30
2023-05-19T03:15:19.410Z,19.83
2023-05-19T03:18:24.958Z,18.73
2023-05-19T03:21:30.469Z,17.45
2023-05-19T03:24:35.066Z,16.37
2023-05-19T03:27:38.542Z,15.88
2023-05-19T03:30:42.459Z,15.13
2023-05-19T03:33:45.929Z,14.87
2023-05-19T03:36:50.489Z,13.32
2023-05-19T03:39:53.697Z,13.60
2023-05-19T03:42:57.347Z,18.00
2023-05-19T03:46:01.008Z,12.47
2023-05-19T03:49:06.591Z,13.87
2023-05-19T03:52:11.103Z,14.82
2023-05-19T03:55:20.338Z,14.05
2023-05-19T03:58:24.233Z,17.73
2023-05-19T04:01:29.806Z,21.90
2023-05-19T04:04:34.184Z,20.73
2023-05-19T04:07:37.345Z,18.50
2023-05-19T04:10:40.792Z,14.98
2023-05-19T04:13:45.195Z,13.13
2023-05-19T04:16:49.067Z,15.20
2023-05-19T04:19:55.765Z,10.60
2023-05-19T04:22:59.224Z,9.40
2023-05-19T04:26:06.332Z,10.90
2023-05-19T04:29:10.898Z,8.95
2023-05-19T04:32:17.985Z,10.70
2023-05-19T04:35:22.712Z,16.37
2023-05-19T04:38:26.294Z,10.23
2023-05-19T04:41:29.682Z,8.75
2023-05-19T04:44:33.824Z,11.20
2023-05-19T04:47:38.277Z,8.80
2023-05-19T04:50:42.460Z,9.37
2023-05-19T04:53:47.471Z,6.75
2023-05-19T04:56:50.818Z,7.00
2023-05-19T05:00:00.416Z,7.15
2023-05-19T05:03:07.982Z,5.30
2023-05-19T05:06:12.222Z,6.73
2023-05-19T05:09:17.007Z,5.93
2023-05-19T05:12:22.100Z,5.37
2023-05-19T05:15:28.977Z,7.40
2023-05-19T05:18:34.867Z,6.90
2023-05-19T05:21:38.684Z,5.67
2023-05-19T05:24:45.408Z,5.40
2023-05-19T05:27:49.672Z,5.57
2023-05-19T05:30:56.606Z,6.00
2023-05-19T05:34:00.461Z,5.37
2023-05-19T05:37:04.392Z,6.20
2023-05-19T05:40:08.615Z,4.65
2023-05-19T05:43:13.071Z,5.43
2023-05-19T05:46:17.229Z,6.75
2023-05-19T05:49:21.190Z,8.00
2023-05-19T05:52:29.972Z,6.10
2023-05-19T05:55:36.266Z,6.55
2023-05-19T05:58:41.474Z,6.87
2023-05-19T06:01:45.198Z,7.75
2023-05-19T06:04:48.654Z,6.50
2023-05-19T06:07:52.072Z,8.83
2023-05-19T06:10:55.744Z,5.40
2023-05-19T06:13:59.115Z,6.50
2023-05-19T06:17:05.499Z,7.82
2023-05-19T06:20:10.291Z,6.07
2023-05-19T06:23:14.027Z,10.00
2023-05-19T06:26:17.338Z,5.90
2023-05-19T06:29:21.129Z,5.60
2023-05-19T06:32:24.597Z,5.15
2023-05-19T06:35:28.406Z,5.73
2023-05-19T06:38:31.731Z,5.37
2023-05-19T06:41:35.453Z,5.57
2023-05-19T06:44:39.475Z,4.20
2023-05-19T06:47:45.742Z,6.62
2023-05-19T06:50:51.077Z,9.20
2023-05-19T06:53:55.999Z,6.93
2023-05-19T06:56:59.606Z,8.13
2023-05-19T07:00:13.431Z,4.70
2023-05-19T07:03:18.846Z,5.53
2023-05-19T07:06:22.539Z,20.97
2023-05-19T07:09:29.941Z,4.67
2023-05-19T07:12:33.417Z,74.57
2023-05-19T07:15:38.403Z,11.98
2023-05-19T07:18:45.207Z,5.22
2023-05-19T07:21:48.636Z,8.97
2023-05-19T07:24:52.901Z,7.03
2023-05-19T07:27:57.788Z,8.68
2023-05-19T07:31:01.620Z,5.70
2023-05-19T07:34:05.182Z,16.83
2023-05-19T07:37:08.633Z,4.60
2023-05-19T07:40:12.147Z,17.30
2023-05-19T07:43:15.743Z,15.27
2023-05-19T07:46:19.004Z,5.43
2023-05-19T07:49:22.602Z,5.97
2023-05-19T07:52:27.737Z,21.53
2023-05-19T07:55:31.213Z,6.83
2023-05-19T07:58:34.382Z,5.53
2023-05-19T08:01:37.736Z,4.95
2023-05-19T08:04:41.187Z,6.57
2023-05-19T08:07:44.239Z,6.07
2023-05-19T08:10:47.854Z,7.37
2023-05-19T08:13:51.911Z,7.18
2023-05-19T08:16:56.760Z,5.07
2023-05-19T08:20:00.535Z,5.10
2023-05-19T08:23:04.710Z,5.00
2023-05-19T08:26:07.868Z,6.63
2023-05-19T08:29:11.254Z,7.05
2023-05-19T08:32:14.341Z,5.55
2023-05-19T08:35:17.844Z,7.62
2023-05-19T08:38:21.157Z,5.50
2023-05-19T08:41:24.600Z,10.83
2023-05-19T08:44:27.921Z,4.75
2023-05-19T08:47:32.875Z,9.30
2023-05-19T08:50:40.403Z,5.65
2023-05-19T08:53:50.874Z,5.83
2023-05-19T08:56:56.089Z,4.67
2023-05-19T09:00:00.331Z,4.30
2023-05-19T09:03:17.446Z,6.35
2023-05-19T09:06:23.469Z,6.05
2023-05-19T09:09:26.793Z,5.00
2023-05-19T09:12:30.509Z,5.77
2023-05-19T09:15:37.067Z,5.53
2023-05-19T09:18:43.266Z,5.30
2023-05-19T09:21:46.596Z,5.45
2023-05-19T09:24:50.062Z,5.20
2023-05-19T09:27:55.457Z,6.00
2023-05-19T09:31:07.978Z,5.87
2023-05-19T09:34:14.388Z,5.97
2023-05-19T09:37:23.290Z,6.43
2023-05-19T09:40:28.963Z,5.63
2023-05-19T09:43:34.622Z,6.73
2023-05-19T09:46:38.041Z,5.62
2023-05-19T09:49:47.572Z,5.55
2023-05-19T09:52:53.167Z,5.68
2023-05-19T09:55:58.169Z,4.90
2023-05-19T09:59:04.831Z,6.83
2023-05-19T10:02:15.960Z,4.68
2023-05-19T10:05:20.948Z,4.50
2023-05-19T10:08:26.708Z,5.62
2023-05-19T10:11:31.115Z,6.27
2023-05-19T10:14:34.440Z,13.10
2023-05-19T10:17:42.700Z,5.28
2023-05-19T10:20:47.840Z,6.65
2023-05-19T10:23:51.224Z,5.30
2023-05-19T10:27:03.972Z,5.80
2023-05-19T10:30:22.130Z,6.53
2023-05-19T10:33:44.030Z,7.37
2023-05-19T10:36:55.950Z,5.80
2023-05-19T10:39:59.975Z,6.82
2023-05-19T10:43:18.377Z,9.43
2023-05-19T10:46:27.096Z,5.80
2023-05-19T10:49:36.052Z,8.02
2023-05-19T10:52:40.792Z,5.50
2023-05-19T10:55:59.262Z,6.25
2023-05-19T10:59:03.897Z,5.17
2023-05-19T11:02:08.924Z,6.70
2023-05-19T11:05:14.806Z,5.50
2023-05-19T11:08:33.727Z,7.43
2023-05-19T11:12:04.108Z,5.15
2023-05-19T11:15:10.617Z,9.90
2023-05-19T11:18:17.783Z,5.37
2023-05-19T11:21:21.149Z,8.63
2023-05-19T11:24:44.480Z,5.65
2023-05-19T11:27:47.898Z,6.53
2023-05-19T11:30:54.751Z,5.47
2023-05-19T11:33:58.713Z,4.33
2023-05-19T11:37:01.877Z,6.20
2023-05-19T11:40:09.759Z,4.82
2023-05-19T11:43:12.840Z,9.52
2023-05-19T11:46:17.742Z,7.03
2023-05-19T11:49:20.939Z,6.97
2023-05-19T11:52:27.646Z,8.80
2023-05-19T11:55:30.883Z,5.68
2023-05-19T11:58:34.459Z,7.65
2023-05-19T12:01:37.633Z,4.87
2023-05-19T12:04:41.178Z,4.17
2023-05-19T12:07:44.532Z,4.57
2023-05-19T12:10:52.610Z,4.50
2023-05-19T12:13:59.099Z,4.90
2023-05-19T12:17:14.260Z,5.60
2023-05-19T12:20:19.968Z,7.77
2023-05-19T12:23:25.262Z,5.95
2023-05-19T12:26:28.406Z,8.30
2023-05-19T12:29:33.146Z,5.53
2023-05-19T12:32:36.607Z,10.03
2023-05-19T12:35:40.028Z,5.37
2023-05-19T12:38:43.859Z,5.68
2023-05-19T12:41:47.425Z,6.07
2023-05-19T12:44:52.712Z,5.45
2023-05-19T12:47:56.497Z,5.17
2023-05-19T12:51:01.654Z,4.47
2023-05-19T12:54:05.152Z,4.07
2023-05-19T12:57:11.300Z,9.23
2023-05-19T13:00:19.083Z,15.23
2023-05-19T13:03:22.472Z,4.90
2023-05-19T13:06:26.204Z,8.00
2023-05-19T13:09:29.337Z,5.20
2023-05-19T13:12:32.846Z,6.55
2023-05-19T13:15:40.600Z,5.03
2023-05-19T13:18:44.174Z,5.00
2023-05-19T13:21:51.285Z,5.47
2023-05-19T13:24:54.619Z,6.28
2023-05-19T13:27:59.554Z,4.78
2023-05-19T13:31:02.992Z,5.20
2023-05-19T13:34:06.320Z,5.63
2023-05-19T13:37:10.300Z,4.77
2023-05-19T13:40:15.055Z,5.57
2023-05-19T13:43:18.543Z,5.15
2023-05-19T13:46:32.775Z,7.05
2023-05-19T13:49:46.579Z,7.70
2023-05-19T13:52:49.781Z,6.90
2023-05-19T13:55:55.285Z,6.82
2023-05-19T13:58:58.634Z,4.87
2023-05-19T14:02:06.655Z,5.47
2023-05-19T14:05:11.078Z,4.20
2023-05-19T14:08:14.468Z,5.97
2023-05-19T14:11:22.772Z,6.87
2023-05-19T14:14:26.136Z,13.40
2023-05-19T14:17:29.612Z,6.80
2023-05-19T14:20:33.254Z,12.27
2023-05-19T14:23:36.873Z,6.67
2023-05-19T14:26:40.122Z,6.53
2023-05-19T14:29:43.684Z,6.47
2023-05-19T14:32:46.839Z,6.90
2023-05-19T14:35:50.685Z,8.17
2023-05-19T14:38:53.765Z,5.53
2023-05-19T14:41:59.703Z,9.73
2023-05-19T14:45:02.816Z,5.80
2023-05-19T14:48:06.607Z,10.98
2023-05-19T14:51:09.937Z,6.00
2023-05-19T14:54:13.373Z,7.07
2023-05-19T14:57:16.645Z,11.27
2023-05-19T15:00:20.181Z,7.78
2023-05-19T15:03:23.544Z,13.20
2023-05-19T15:06:27.063Z,14.30
2023-05-19T15:09:30.090Z,7.00
2023-05-19T15:12:33.798Z,5.30
2023-05-19T15:15:36.964Z,8.68
2023-05-19T15:18:40.582Z,7.32
2023-05-19T15:21:45.724Z,6.20
2023-05-19T15:24:49.143Z,5.53
2023-05-19T15:27:52.282Z,8.43
2023-05-19T15:30:55.916Z,6.72
2023-05-19T15:33:59.112Z,4.80
2023-05-19T15:37:02.565Z,6.47
2023-05-19T15:40:06.612Z,7.10
2023-05-19T15:43:10.031Z,11.12
2023-05-19T15:46:13.474Z,9.10
2023-05-19T15:49:18.071Z,5.18
2023-05-19T15:52:21.457Z,5.53
2023-05-19T15:55:24.860Z,8.07
2023-05-19T15:58:28.046Z,5.97
2023-05-19T16:01:32.625Z,4.93
2023-05-19T16:04:36.188Z,6.30
2023-05-19T16:07:39.375Z,6.33
2023-05-19T16:10:42.746Z,8.50
2023-05-19T16:13:46.530Z,4.90
2023-05-19T16:16:49.947Z,5.93
2023-05-19T16:19:53.182Z,5.43
2023-05-19T16:22:56.646Z,5.23
2023-05-19T16:25:59.647Z,5.60
2023-05-19T16:29:03.197Z,5.43
2023-05-19T16:32:06.805Z,6.72
2023-05-19T16:35:11.056Z,6.60
2023-05-19T16:38:14.213Z,6.20
2023-05-19T16:41:17.649Z,6.03
2023-05-19T16:44:21.009Z,8.35
2023-05-19T16:47:25.568Z,5.40
2023-05-19T16:50:28.683Z,5.12
2023-05-19T16:53:33.258Z,7.33
2023-05-19T16:56:36.452Z,7.23
2023-05-19T16:59:39.996Z,6.28
2023-05-19T17:02:43.261Z,5.75
2023-05-19T17:05:46.837Z,6.72
2023-05-19T17:08:50.078Z,9.27
2023-05-19T17:11:54.179Z,10.00
2023-05-19T17:14:57.619Z,11.15
2023-05-19T17:18:01.091Z,6.25
2023-05-19T17:21:05.571Z,9.32
2023-05-19T17:24:09.193Z,8.80
2023-05-19T17:27:12.308Z,7.97
2023-05-19T17:30:16.635Z,11.12
2023-05-19T17:33:19.891Z,6.85
2023-05-19T17:36:23.348Z,15.07
2023-05-19T17:39:26.505Z,8.63
2023-05-19T17:42:31.773Z,8.10
2023-05-19T17:45:35.225Z,12.13
2023-05-19T17:48:40.034Z,21.73
2023-05-19T17:51:43.563Z,14.48
2023-05-19T17:54:47.180Z,12.17
2023-05-19T17:57:50.801Z,11.00
2023-05-19T18:00:55.292Z,14.80
2023-05-19T18:03:59.229Z,8.80
2023-05-19T18:07:03.775Z,12.02
2023-05-19T18:10:08.460Z,27.50
2023-05-19T18:13:14.419Z,16.43
2023-05-19T18:16:17.809Z,11.93
2023-05-19T18:19:20.962Z,15.95
2023-05-19T18:22:24.491Z,11.40
2023-05-19T18:25:27.781Z,10.87
2023-05-19T18:28:31.171Z,27.33
2023-05-19T18:31:35.712Z,50.28
2023-05-19T18:34:39.228Z,25.40
2023-05-19T18:37:42.597Z,24.80
2023-05-19T18:40:46.178Z,30.00
2023-05-19T18:43:49.357Z,29.10
2023-05-19T18:46:53.728Z,30.95
2023-05-19T18:49:56.871Z,32.85
2023-05-19T18:53:00.661Z,18.52
2023-05-19T18:56:04.263Z,16.77
2023-05-19T18:59:09.977Z,17.50
2023-05-19T19:02:13.381Z,28.60
2023-05-19T19:05:16.798Z,25.20
2023-05-19T19:08:20.087Z,20.33
2023-05-19T19:11:23.772Z,27.33
2023-05-19T19:14:26.985Z,25.83
2023-05-19T19:17:30.883Z,19.42
2023-05-19T19:20:34.968Z,26.87
2023-05-19T19:23:39.819Z,22.75
2023-05-19T19:26:42.927Z,19.50
2023-05-19T19:29:51.292Z,18.77
2023-05-19T19:32:56.726Z,19.00
2023-05-19T19:36:00.899Z,21.83
2023-05-19T19:39:04.149Z,20.25
2023-05-19T19:42:07.591Z,21.37
2023-05-19T19:45:13.100Z,16.53
2023-05-19T19:48:18.212Z,20.45
2023-05-19T19:51:21.424Z,22.33
2023-05-19T19:54:25.011Z,17.92
2023-05-19T19:57:29.371Z,21.03
2023-05-19T20:00:33.277Z,17.83
2023-05-19T20:03:37.435Z,18.30
2023-05-19T20:06:41.085Z,18.10
2023-05-19T20:09:44.607Z,22.98
2023-05-19T20:12:48.022Z,21.10
2023-05-19T20:15:51.654Z,20.90
2023-05-19T20:18:54.908Z,23.17
2023-05-19T20:21:58.379Z,19.08
2023-05-19T20:25:02.016Z,20.98
2023-05-19T20:28:05.385Z,24.93
2023-05-19T20:31:09.457Z,19.33
2023-05-19T20:34:12.956Z,20.45
2023-05-19T20:37:17.446Z,17.90
2023-05-19T20:40:20.878Z,21.10
2023-05-19T20:43:24.178Z,16.60
2023-05-19T20:46:27.891Z,18.33
2023-05-19T20:49:31.347Z,15.82
2023-05-19T20:52:34.860Z,16.05
2023-05-19T20:55:39.174Z,14.18
2023-05-19T20:58:43.126Z,14.03
2023-05-19T21:01:46.512Z,15.80
2023-05-19T21:04:50.939Z,14.57
2023-05-19T21:07:54.157Z,13.05
2023-05-19T21:10:57.539Z,11.85
2023-05-19T21:14:04.372Z,13.77
2023-05-19T21:17:08.371Z,12.43
2023-05-19T21:20:12.712Z,11.57
2023-05-19T21:23:16.181Z,12.13
2023-05-19T21:26:19.470Z,12.68
2023-05-19T21:29:22.887Z,13.50
2023-05-19T21:32:26.288Z,13.97
2023-05-19T21:35:29.725Z,13.52
2023-05-19T21:38:32.844Z,12.73
2023-05-19T21:41:36.390Z,13.57
2023-05-19T21:44:39.555Z,15.37
2023-05-19T21:47:43.147Z,15.27
2023-05-19T21:50:46.257Z,15.65
2023-05-19T21:53:49.784Z,16.73
2023-05-19T21:56:53.019Z,21.23
2023-05-19T21:59:56.632Z,17.57
2023-05-19T22:03:00.422Z,18.87
2023-05-19T22:06:06.518Z,22.10
2023-05-19T22:09:11.100Z,20.33
2023-05-19T22:12:14.462Z,20.88
2023-05-19T22:15:18.575Z,23.47
2023-05-19T22:18:22.124Z,19.03
2023-05-19T22:21:25.293Z,18.12
2023-05-19T22:24:28.778Z,19.85
2023-05-19T22:27:32.177Z,22.45
2023-05-19T22:30:38.498Z,20.43
2023-05-19T22:33:43.002Z,22.40
2023-05-19T22:36:46.416Z,23.87
2023-05-19T22:39:49.610Z,22.87
2023-05-19T22:42:53.055Z,23.62
2023-05-19T22:45:56.409Z,28.23
2023-05-19T22:49:00.159Z,20.57
2023-05-19T22:52:03.385Z,22.77
2023-05-19T22:55:07.485Z,21.85
2023-05-19T22:58:10.795Z,22.62
2023-05-19T23:01:14.236Z,22.10
2023-05-19T23:04:17.729Z,22.43
2023-05-19T23:07:21.466Z,25.23
2023-05-19T23:10:24.669Z,22.45
2023-05-19T23:13:28.233Z,25.23
2023-05-19T23:16:31.508Z,23.27
2023-05-19T23:19:36.573Z,21.50
2023-05-19T23:22:39.771Z,29.45
2023-05-19T23:25:43.243Z,26.00
2023-05-19T23:28:46.375Z,25.37
2023-05-19T23:31:49.796Z,26.30
2023-05-19T23:34:52.920Z,26.73
2023-05-19T23:37:56.580Z,29.23
2023-05-19T23:40:59.761Z,30.10
2023-05-19T23:44:04.230Z,31.73
2023-05-19T23:47:07.544Z,26.53
2023-05-19T23:50:11.545Z,29.92
2023-05-19T23:53:14.766Z,30.02
2023-05-19T23:56:18.374Z,34.05
2023-05-19T23:59:21.493Z,31.52
